Time;durP1;ratioP1;P1;durP2;ratioP2;P2;SDS_P1;SDS_P2;PMS_P1;PMS_P2;Temp;Humidity;BMP_temperature;BMP_pressure;BME280_temperature;BME280_humidity;BME280_pressure;Samples;Min_cycle;Max_cycle;Signal;HPM_P1;HPM_P2
2022/07/27 00:02:13;;;;;;;;;2.25;2.00;;;;;19.40;53.19;101673.78;5059140;28;45501;-85
2022/07/27 00:04:39;;;;;;;;;3.00;2.00;;;;;19.33;52.55;101664.47;5058601;28;63680;-84
2022/07/27 00:07:04;;;;;;;;;2.00;1.00;;;;;19.39;53.36;101668.56;5058539;28;69455;-85
2022/07/27 00:09:29;;;;;;;;;2.00;2.00;;;;;19.32;52.70;101668.03;5077022;28;45441;-84
2022/07/27 00:11:55;;;;;;;;;2.50;2.00;;;;;19.34;52.86;101674.09;5059036;28;45414;-85
2022/07/27 00:14:20;;;;;;;;;2.00;2.00;;;;;19.31;53.36;101667.16;5058036;28;61150;-84
2022/07/27 00:16:46;;;;;;;;;4.25;2.00;;;;;19.24;53.08;101660.53;5059101;28;46207;-85
2022/07/27 00:19:11;;;;;;;;;3.25;2.00;;;;;19.18;52.96;101666.09;5077181;28;45316;-85
2022/07/27 00:21:37;;;;;;;;;2.75;2.00;;;;;19.15;53.99;101672.38;5058088;28;63853;-85
2022/07/27 00:24:02;;;;;;;;;2.00;2.00;;;;;19.13;53.73;101668.97;5087902;27;45261;-85
2022/07/27 00:26:27;;;;;;;;;4.25;2.25;;;;;19.07;53.98;101666.63;5097111;27;56234;-84
2022/07/27 00:28:53;;;;;;;;;3.00;2.25;;;;;19.12;53.75;101672.53;5097149;27;45269;-84
2022/07/27 00:31:18;;;;;;;;;2.00;2.00;;;;;19.08;54.06;101660.44;5085821;27;55842;-85
2022/07/27 00:33:44;;;;;;;;;2.00;2.00;;;;;19.11;54.45;101678.75;5109962;27;45416;-85
2022/07/27 00:36:09;;;;;;;;;2.00;2.00;;;;;19.06;54.47;101666.72;5109732;27;45447;-84
2022/07/27 00:38:34;;;;;;;;;2.25;2.00;;;;;19.05;54.18;101668.50;5109646;27;45260;-85
2022/07/27 00:41:00;;;;;;;;;2.75;1.00;;;;;19.04;53.97;101660.69;5109235;27;60605;-85
2022/07/27 00:43:25;;;;;;;;;3.75;2.00;;;;;19.00;54.17;101661.72;5108919;27;57351;-84
2022/07/27 00:45:50;;;;;;;;;4.00;4.00;;;;;18.94;54.33;101657.63;5075971;27;63277;-84
2022/07/27 00:48:16;;;;;;;;;1.75;1.75;;;;;18.89;54.45;101655.22;5076577;28;45504;-85
2022/07/27 00:50:42;;;;;;;;;3.75;2.75;;;;;18.85;54.21;101669.50;5076901;27;45552;-85
2022/07/27 00:53:08;;;;;;;;;4.00;2.00;;;;;18.75;54.95;101663.75;5076087;28;45429;-85
2022/07/27 00:55:34;;;;;;;;;4.25;3.00;;;;;18.74;55.38;101661.22;5076550;28;45400;-85
2022/07/27 00:58:02;;;;;;;;;2.75;2.75;;;;;18.69;55.50;101656.16;5076264;28;45335;-85
2022/07/27 01:00:27;;;;;;;;;4.00;2.00;;;;;18.66;55.54;101656.28;5075498;28;45422;-85
2022/07/27 01:02:53;;;;;;;;;1.00;1.00;;;;;18.61;55.55;101655.69;5075286;28;45306;-85
2022/07/27 01:05:18;;;;;;;;;2.00;2.00;;;;;18.62;55.09;101654.72;5076349;28;45456;-85
2022/07/27 01:07:44;;;;;;;;;2.25;1.25;;;;;18.59;55.18;101654.91;5075103;28;45296;-85
2022/07/27 01:10:09;;;;;;;;;3.00;3.00;;;;;18.48;55.65;101641.34;5075049;28;45683;-84
2022/07/27 01:12:34;;;;;;;;;2.25;2.25;;;;;18.52;55.32;101649.06;5074776;28;45484;-84
2022/07/27 01:15:00;;;;;;;;;2.00;2.00;;;;;18.47;56.15;101650.22;5074932;28;46033;-84
2022/07/27 01:17:29;;;;;;;;;4.25;2.00;;;;;18.53;55.38;101647.28;5076295;28;45449;-84
2022/07/27 01:19:56;;;;;;;;;2.00;2.00;;;;;18.53;55.33;101650.75;5076390;27;45286;-84
2022/07/27 01:22:21;;;;;;;;;2.75;2.75;;;;;18.51;55.45;101655.25;5074912;28;45327;-84
2022/07/27 01:24:49;;;;;;;;;2.00;1.75;;;;;18.45;55.68;101649.44;5075928;28;45284;-84
2022/07/27 01:27:14;;;;;;;;;2.00;0.25;;;;;18.46;55.93;101648.47;5057855;28;45245;-84
2022/07/27 01:29:40;;;;;;;;;3.00;2.00;;;;;18.39;56.30;101642.66;5076269;28;45343;-85
2022/07/27 01:32:06;;;;;;;;;2.25;2.00;;;;;18.35;56.48;101644.59;5025130;28;45470;-84
2022/07/27 01:34:32;;;;;;;;;3.25;1.00;;;;;18.25;55.99;101619.59;5037740;28;46210;-85
2022/07/27 01:37:01;;;;;;;;;2.25;2.25;;;;;18.24;56.46;101624.91;5037769;28;45775;-85
2022/07/27 01:39:26;;;;;;;;;2.00;1.00;;;;;18.20;56.73;101621.56;5055624;28;45288;-85
2022/07/27 01:41:51;;;;;;;;;1.50;1.50;;;;;18.16;56.81;101617.38;5037789;28;45269;-85
2022/07/27 01:44:17;;;;;;;;;2.00;2.00;;;;;18.23;56.81;101634.63;5055179;28;73253;-85
2022/07/27 01:46:42;;;;;;;;;4.50;2.00;;;;;18.14;56.36;101620.09;5057279;28;55866;-85
2022/07/27 01:49:07;;;;;;;;;2.00;1.00;;;;;18.17;57.04;101632.28;5075355;28;58193;-85
2022/07/27 01:51:33;;;;;;;;;4.50;3.00;;;;;18.18;56.55;101636.59;5057744;28;45370;-85
2022/07/27 01:53:58;;;;;;;;;3.00;3.00;;;;;18.18;57.31;101632.22;5057219;28;45512;-85
2022/07/27 01:56:24;;;;;;;;;3.75;2.25;;;;;18.13;56.73;101622.81;5074090;28;56326;-84
2022/07/27 01:58:49;;;;;;;;;2.50;2.00;;;;;18.13;57.13;101630.72;5075734;28;45395;-84
2022/07/27 02:01:14;;;;;;;;;4.00;1.00;;;;;18.11;57.13;101619.41;5056796;28;64587;-84
2022/07/27 02:03:40;;;;;;;;;3.00;2.00;;;;;18.07;57.19;101621.31;5075410;28;46351;-84
2022/07/27 02:06:05;;;;;;;;;3.75;2.75;;;;;18.07;56.94;101633.63;5058567;28;67363;-84
2022/07/27 02:08:31;;;;;;;;;2.00;2.00;;;;;18.05;57.52;101624.94;5078304;28;61075;-85
2022/07/27 02:13:46;;;;;;;;;2.50;2.50;;;;;18.00;57.41;101630.44;5063683;28;45778;-84
2022/07/27 02:16:15;;;;;;;;;5.50;3.00;;;;;17.96;57.27;101620.97;5060994;28;45315;-84
2022/07/27 02:18:40;;;;;;;;;3.00;3.00;;;;;17.99;57.58;101629.53;5061002;28;45315;-85
2022/07/27 02:21:06;;;;;;;;;4.50;3.00;;;;;17.99;57.74;101633.97;5078998;28;45375;-85
2022/07/27 02:23:33;;;;;;;;;5.00;3.25;;;;;17.95;57.34;101635.88;5078324;28;45411;-84
2022/07/27 02:26:00;;;;;;;;;5.25;2.00;;;;;17.86;57.92;101615.22;5060771;28;45716;-85
2022/07/27 02:28:25;;;;;;;;;3.00;2.75;;;;;17.89;58.15;101628.28;5061086;28;45455;-84
2022/07/27 02:30:50;;;;;;;;;2.25;1.50;;;;;17.88;58.21;101625.72;5072993;28;45423;-85
2022/07/27 02:33:16;;;;;;;;;3.00;2.75;;;;;17.87;58.18;101632.75;5039892;28;65530;-85
2022/07/27 02:35:42;;;;;;;;;6.25;2.50;;;;;17.81;58.04;101627.72;5058292;28;51765;-85
2022/07/27 02:38:07;;;;;;;;;2.75;2.50;;;;;17.82;58.50;101634.72;5040339;28;45402;-84
2022/07/27 02:40:32;;;;;;;;;7.00;2.00;;;;;17.77;58.30;101634.06;5039464;28;68419;-85
2022/07/27 02:42:58;;;;;;;;;6.25;4.00;;;;;17.72;58.33;101636.91;5039840;28;60313;-85
2022/07/27 02:45:23;;;;;;;;;4.00;2.25;;;;;17.66;58.42;101631.03;5032611;28;69303;-84
2022/07/27 02:47:48;;;;;;;;;2.00;2.00;;;;;17.64;58.68;101636.38;5078210;28;52469;-84
2022/07/27 02:50:14;;;;;;;;;3.00;2.00;;;;;17.59;58.20;101628.69;5077873;28;65426;-84
2022/07/27 02:52:40;;;;;;;;;3.25;3.00;;;;;17.57;58.54;101635.81;5077942;28;46306;-84
2022/07/27 02:55:05;;;;;;;;;4.25;2.50;;;;;17.53;59.13;101636.88;5059459;28;66370;-84
2022/07/27 02:57:33;;;;;;;;;2.50;2.25;;;;;17.51;58.47;101630.78;5078561;28;45435;-84
2022/07/27 02:59:59;;;;;;;;;4.75;4.50;;;;;17.45;58.65;101615.28;5078326;28;45768;-84
2022/07/27 03:02:24;;;;;;;;;4.00;3.00;;;;;17.44;59.10;101628.50;5059879;28;47945;-84
2022/07/27 03:04:49;;;;;;;;;5.00;2.00;;;;;17.41;59.23;101624.25;5077604;28;61903;-84
2022/07/27 03:07:14;;;;;;;;;2.00;2.00;;;;;17.39;59.07;101628.72;5077666;28;51481;-84
2022/07/27 03:09:40;;;;;;;;;3.25;3.25;;;;;17.31;60.05;101613.25;5077487;28;65453;-84
2022/07/27 03:12:05;;;;;;;;;2.50;1.75;;;;;17.30;59.73;101627.31;5059049;28;63058;-85
2022/07/27 03:14:31;;;;;;;;;3.50;2.00;;;;;17.31;59.62;101629.06;5060091;28;45374;-84
2022/07/27 03:16:56;;;;;;;;;2.75;2.75;;;;;17.26;59.26;101619.66;5077965;28;45399;-85
2022/07/27 03:19:21;;;;;;;;;2.00;2.00;;;;;17.28;59.42;101620.44;5059228;28;64273;-85
2022/07/27 03:21:47;;;;;;;;;2.00;2.00;;;;;17.27;59.08;101616.94;5076746;28;70480;-84
2022/07/27 03:24:12;;;;;;;;;7.00;3.00;;;;;17.27;59.39;101610.81;5073736;28;45291;-84
2022/07/27 03:26:37;;;;;;;;;2.00;2.00;;;;;17.27;59.29;101614.28;5076606;28;47995;-84
2022/07/27 03:29:03;;;;;;;;;2.25;2.00;;;;;17.30;59.30;101618.59;5078281;27;45465;-85
2022/07/27 03:31:28;;;;;;;;;2.75;1.75;;;;;17.25;59.69;101612.66;5077528;28;72139;-85
2022/07/27 03:33:54;;;;;;;;;2.00;1.75;;;;;17.20;59.04;101607.63;5094136;27;71643;-85
2022/07/27 03:36:19;;;;;;;;;1.00;1.00;;;;;17.26;59.75;101614.38;5077492;28;46679;-84
2022/07/27 03:38:44;;;;;;;;;4.50;2.00;;;;;17.26;59.71;101617.00;5078062;28;45383;-85
2022/07/27 03:41:10;;;;;;;;;3.00;1.25;;;;;17.28;59.61;101623.06;5076440;28;71722;-85
2022/07/27 03:43:35;;;;;;;;;1.00;1.00;;;;;17.22;59.49;101616.28;5078139;28;45373;-85
2022/07/27 03:46:00;;;;;;;;;1.75;1.75;;;;;17.19;59.04;101614.63;5078672;27;49120;-85
2022/07/27 03:48:26;;;;;;;;;1.00;1.00;;;;;17.21;59.59;101620.66;5078250;28;46598;-85
2022/07/27 03:50:52;;;;;;;;;2.00;2.00;;;;;17.20;58.96;101618.97;5077401;28;45571;-85
2022/07/27 03:53:17;;;;;;;;;2.25;1.25;;;;;17.10;59.04;101603.66;5079303;28;45495;-85
2022/07/27 03:55:43;;;;;;;;;2.50;0.75;;;;;17.20;59.33;101615.50;5077845;28;45553;-85
2022/07/27 03:58:09;;;;;;;;;3.75;3.00;;;;;17.17;58.96;101619.09;5079848;27;45528;-85
2022/07/27 04:00:34;;;;;;;;;1.25;1.25;;;;;17.12;59.28;101620.22;5079506;28;46410;-86
2022/07/27 04:03:00;;;;;;;;;2.00;1.25;;;;;17.12;59.18;101613.16;5079717;27;45416;-85
2022/07/27 04:05:25;;;;;;;;;1.50;1.50;;;;;17.13;59.47;101627.19;5078111;28;45280;-85
2022/07/27 04:07:51;;;;;;;;;1.00;1.00;;;;;17.10;59.08;101622.06;5080360;28;45251;-85
2022/07/27 04:10:17;;;;;;;;;3.25;2.75;;;;;17.02;58.23;101607.44;5079582;27;52123;-86
2022/07/27 04:12:42;;;;;;;;;2.50;2.50;;;;;17.07;59.17;101615.16;5079086;28;45364;-85
2022/07/27 04:15:08;;;;;;;;;1.50;1.50;;;;;17.08;59.10;101626.53;5078703;28;45324;-85
2022/07/27 04:17:34;;;;;;;;;1.25;1.25;;;;;17.09;59.03;101625.63;5077565;28;45233;-85
2022/07/27 04:19:59;;;;;;;;;1.00;1.00;;;;;17.07;58.74;101616.91;5075633;28;45296;-85
2022/07/27 04:22:24;;;;;;;;;1.00;1.00;;;;;17.05;58.81;101618.75;5076787;28;45386;-84
2022/07/27 04:24:50;;;;;;;;;3.75;2.00;;;;;17.06;59.05;101620.47;5058868;28;45293;-85
2022/07/27 04:27:15;;;;;;;;;3.50;2.50;;;;;17.04;58.58;101620.53;5059157;28;45462;-85
2022/07/27 04:29:40;;;;;;;;;2.50;2.00;;;;;17.05;58.88;101616.13;5075410;28;66286;-85
2022/07/27 04:32:06;;;;;;;;;2.00;2.00;;;;;17.04;58.06;101612.66;5042367;28;45498;-85
2022/07/27 04:34:31;;;;;;;;;2.00;2.00;;;;;17.00;58.67;101608.44;5056618;28;45494;-85
2022/07/27 04:36:56;;;;;;;;;4.25;2.00;;;;;17.03;57.96;101621.44;5037618;28;69506;-85
2022/07/27 04:39:22;;;;;;;;;2.75;1.50;;;;;17.02;58.47;101619.75;5054405;28;70688;-85
2022/07/27 04:41:47;;;;;;;;;2.00;2.00;;;;;17.01;58.27;101616.28;5038272;28;49420;-84
2022/07/27 04:44:12;;;;;;;;;2.75;1.00;;;;;17.03;58.21;101619.69;5038108;28;60113;-85
2022/07/27 04:46:38;;;;;;;;;0.75;0.75;;;;;17.06;57.99;101629.22;5076451;28;49019;-85
2022/07/27 04:49:03;;;;;;;;;1.25;0.50;;;;;17.06;58.08;101617.84;5076202;28;46548;-85
2022/07/27 04:51:29;;;;;;;;;1.50;1.50;;;;;17.06;58.25;101621.34;5058676;28;45385;-85
2022/07/27 04:53:54;;;;;;;;;3.75;2.00;;;;;17.07;58.29;101619.53;5041462;28;58616;-85
2022/07/27 04:56:19;;;;;;;;;2.50;1.00;;;;;17.01;58.12;101613.66;5075779;28;64116;-85
2022/07/27 04:58:45;;;;;;;;;3.00;1.25;;;;;16.99;57.98;101606.72;5057636;28;64596;-85
2022/07/27 05:01:11;;;;;;;;;5.50;1.00;;;;;17.00;58.60;101608.44;5076326;28;45297;-85
2022/07/27 05:03:37;;;;;;;;;2.25;1.00;;;;;17.06;58.41;101621.34;5058205;28;45372;-85
2022/07/27 05:06:03;;;;;;;;;2.00;1.00;;;;;17.04;58.08;101615.28;5058505;28;45442;-85
2022/07/27 05:08:28;;;;;;;;;2.75;2.00;;;;;17.03;58.21;101626.72;5057616;28;61494;-85
2022/07/27 05:10:53;;;;;;;;;2.00;2.00;;;;;17.02;57.76;101623.22;5076298;28;45403;-85
2022/07/27 05:13:19;;;;;;;;;4.50;2.50;;;;;16.98;58.47;101618.19;5057626;28;54708;-84
2022/07/27 05:15:44;;;;;;;;;2.75;2.00;;;;;17.01;57.97;101625.91;5075497;28;68142;-85
2022/07/27 05:18:09;;;;;;;;;2.75;2.50;;;;;17.00;57.77;101627.69;5056920;28;68929;-85
2022/07/27 05:20:35;;;;;;;;;3.75;1.00;;;;;17.00;58.23;101624.22;5076102;28;45387;-85
2022/07/27 05:23:00;;;;;;;;;3.75;1.00;;;;;16.99;57.81;101615.50;5075628;28;56904;-85
2022/07/27 05:25:25;;;;;;;;;5.75;2.00;;;;;17.05;57.71;101624.91;5075594;28;58050;-85
2022/07/27 05:27:52;;;;;;;;;5.25;2.00;;;;;17.08;57.76;101631.78;5075147;28;71280;-85
2022/07/27 05:30:18;;;;;;;;;4.00;3.00;;;;;17.09;58.12;101631.72;5074712;28;45443;-85
2022/07/27 05:32:44;;;;;;;;;2.00;1.25;;;;;17.09;57.62;101636.16;5037676;28;45356;-85
2022/07/27 05:35:09;;;;;;;;;0.00;0.00;;;;;17.06;57.81;101634.47;5037969;28;45567;-84
2022/07/27 05:37:34;;;;;;;;;4.00;1.75;;;;;17.13;57.32;101643.84;5055264;28;57364;-85
2022/07/27 05:40:00;;;;;;;;;2.00;2.00;;;;;17.09;57.68;101634.38;5039300;28;45432;-85
2022/07/27 05:42:25;;;;;;;;;3.00;1.00;;;;;17.15;57.64;101644.63;5041442;28;45609;-85
2022/07/27 05:44:54;;;;;;;;;4.50;1.00;;;;;17.18;57.45;101649.75;5064671;28;45401;-85
2022/07/27 05:47:19;;;;;;;;;7.00;3.00;;;;;17.19;57.08;101640.94;5060897;28;46923;-84
2022/07/27 05:49:45;;;;;;;;;3.25;2.00;;;;;17.21;57.03;101646.97;5079479;28;45422;-84
2022/07/27 05:52:10;;;;;;;;;3.00;2.00;;;;;17.17;56.72;101639.31;5061251;28;45711;-85
2022/07/27 05:54:35;;;;;;;;;5.00;3.00;;;;;17.16;57.04;101640.22;5060714;28;59171;-85
2022/07/27 05:57:01;;;;;;;;;5.75;3.00;;;;;17.22;57.15;101647.88;5061147;28;48618;-85
2022/07/27 05:59:26;;;;;;;;;3.25;3.00;;;;;17.24;56.80;101651.28;5060876;28;53452;-84
2022/07/27 06:01:52;;;;;;;;;2.00;2.00;;;;;17.27;56.79;101653.75;5060942;28;45339;-85
2022/07/27 06:04:17;;;;;;;;;3.00;3.00;;;;;17.29;57.05;101651.06;5061152;28;45387;-84
2022/07/27 06:09:26;;;;;;;;;2.75;1.50;;;;;17.31;56.71;101654.47;5063988;28;45899;-84
2022/07/27 06:11:52;;;;;;;;;4.00;3.00;;;;;17.37;57.14;101660.34;5078819;28;50325;-84
2022/07/27 06:14:17;;;;;;;;;2.75;2.75;;;;;17.38;56.75;101645.41;5078283;28;68337;-85
2022/07/27 06:16:42;;;;;;;;;2.25;2.25;;;;;17.43;56.76;101653.97;5060081;28;56998;-85
2022/07/27 06:19:07;;;;;;;;;4.00;2.00;;;;;17.44;57.27;101650.44;5060010;28;68273;-84
2022/07/27 06:21:33;;;;;;;;;6.50;2.75;;;;;17.47;56.31;101654.69;5060480;28;52621;-85
2022/07/27 06:23:58;;;;;;;;;6.00;3.00;;;;;17.48;56.52;101656.41;5077811;28;66630;-85
2022/07/27 06:26:23;;;;;;;;;2.00;2.00;;;;;17.46;56.70;101651.22;5059787;28;72116;-85
2022/07/27 06:28:49;;;;;;;;;4.00;2.00;;;;;17.52;56.47;101658.00;5060659;28;45470;-85
2022/07/27 06:31:14;;;;;;;;;2.75;2.00;;;;;17.56;56.63;101649.03;5051148;28;45481;-85
2022/07/27 06:33:40;;;;;;;;;5.00;4.00;;;;;17.58;56.38;101648.03;5024030;28;45409;-85
2022/07/27 06:36:07;;;;;;;;;2.00;2.00;;;;;17.61;56.10;101653.19;5040282;28;45725;-85
2022/07/27 06:38:33;;;;;;;;;2.75;1.50;;;;;17.66;56.24;101657.38;5058488;28;45630;-84
2022/07/27 06:40:58;;;;;;;;;3.00;2.00;;;;;17.71;56.63;101671.19;5040598;28;45361;-89
2022/07/27 06:43:31;;;;;;;;;4.00;3.00;;;;;17.75;56.10;101665.72;5023581;28;46373;-82
2022/07/27 06:45:59;;;;;;;;;5.00;4.00;;;;;17.76;56.44;101661.31;5072441;28;47170;-80
2022/07/27 06:48:25;;;;;;;;;2.00;2.00;;;;;17.79;56.46;101672.59;5078394;28;45363;-80
2022/07/27 06:50:51;;;;;;;;;5.00;3.00;;;;;17.85;56.15;101671.47;5078029;28;45357;-80
2022/07/27 06:53:17;;;;;;;;;3.00;2.00;;;;;17.89;56.11;101665.16;5078356;28;45347;-80
2022/07/27 06:55:42;;;;;;;;;5.00;2.00;;;;;17.95;55.80;101664.00;5078307;28;45313;-80
2022/07/27 06:58:08;;;;;;;;;4.00;2.00;;;;;17.98;55.82;101670.00;5077571;28;64456;-82
2022/07/27 07:00:33;;;;;;;;;3.00;3.00;;;;;18.04;56.05;101673.28;5077993;28;45446;-82
2022/07/27 07:03:01;;;;;;;;;2.00;2.00;;;;;18.07;56.40;101667.88;5059611;28;58569;-82
2022/07/27 07:05:27;;;;;;;;;2.75;2.75;;;;;18.16;55.60;101681.50;5077518;28;46483;-81
2022/07/27 07:07:54;;;;;;;;;3.00;3.00;;;;;18.21;55.56;101678.63;5038156;28;45416;-83
2022/07/27 07:10:19;;;;;;;;;4.75;1.75;;;;;18.24;55.86;101678.50;5037104;28;45383;-82
2022/07/27 07:12:45;;;;;;;;;5.25;3.75;;;;;18.29;55.45;101673.84;5057265;28;45467;-82
2022/07/27 07:15:12;;;;;;;;;4.50;2.00;;;;;18.36;55.11;101680.56;5057128;28;46292;-82
2022/07/27 07:17:37;;;;;;;;;2.50;2.00;;;;;18.43;55.30;101678.50;5057488;28;45728;-82
2022/07/27 07:20:04;;;;;;;;;5.00;4.00;;;;;18.46;55.61;101675.72;5038450;28;45481;-83
2022/07/27 07:22:32;;;;;;;;;5.25;2.00;;;;;18.54;55.04;101672.72;5040424;28;45505;-82
2022/07/27 07:24:57;;;;;;;;;4.00;4.00;;;;;18.62;54.96;101681.09;5076062;28;48133;-81
2022/07/27 07:27:24;;;;;;;;;5.00;4.00;;;;;18.65;54.69;101685.41;5075446;28;68145;-80
2022/07/27 07:29:50;;;;;;;;;3.00;3.00;;;;;18.72;54.93;101678.88;5077834;27;45185;-80
2022/07/27 07:32:15;;;;;;;;;5.25;1.50;;;;;18.75;54.52;101676.94;5076449;28;45439;-79
2022/07/27 07:34:41;;;;;;;;;7.75;3.25;;;;;18.81;54.58;101673.19;5076777;28;70898;-80
2022/07/27 07:37:07;;;;;;;;;6.00;4.00;;;;;18.89;54.16;101678.13;5077498;28;45351;-82
2022/07/27 07:39:32;;;;;;;;;5.50;4.00;;;;;18.93;54.40;101679.66;5109174;27;45401;-80
2022/07/27 07:41:58;;;;;;;;;4.25;3.00;;;;;19.00;54.14;101682.84;5071306;28;45482;-80
2022/07/27 07:44:23;;;;;;;;;3.25;3.00;;;;;19.06;54.29;101678.13;5075451;27;70732;-82
2022/07/27 07:46:48;;;;;;;;;6.25;3.50;;;;;19.10;53.66;101681.47;5076204;27;73507;-80
2022/07/27 07:49:14;;;;;;;;;4.00;4.00;;;;;19.18;53.93;101683.72;5087502;27;68241;-80
2022/07/27 07:51:39;;;;;;;;;7.00;4.50;;;;;19.22;53.74;101686.09;5065802;27;45723;-80
2022/07/27 07:54:04;;;;;;;;;3.00;1.00;;;;;19.27;53.20;101681.47;5088677;27;51400;-80
2022/07/27 07:56:30;;;;;;;;;4.75;3.50;;;;;19.30;53.99;101670.75;5095905;27;71120;-80
2022/07/27 07:58:55;;;;;;;;;8.00;5.00;;;;;19.39;53.71;101679.13;5075207;27;47439;-80
2022/07/27 08:01:20;;;;;;;;;7.00;3.50;;;;;19.43;53.33;101673.63;5073542;28;45480;-80
2022/07/27 08:03:46;;;;;;;;;2.50;2.50;;;;;19.50;54.14;101674.16;5054558;28;68802;-80
2022/07/27 08:06:11;;;;;;;;;7.00;4.50;;;;;19.59;53.52;101680.75;5066182;27;45471;-80
2022/07/27 08:08:37;;;;;;;;;4.75;3.00;;;;;19.63;52.85;101674.38;5056882;28;45359;-80
2022/07/27 08:11:02;;;;;;;;;4.50;3.50;;;;;19.63;52.77;101672.59;5063008;28;45464;-79
2022/07/27 08:13:27;;;;;;;;;4.50;3.00;;;;;19.70;53.18;101671.31;5079449;27;74293;-80
2022/07/27 08:15:53;;;;;;;;;7.50;3.25;;;;;19.78;52.95;101676.25;5076972;27;45366;-80
2022/07/27 08:18:18;;;;;;;;;5.50;4.75;;;;;19.83;52.78;101658.34;5079514;27;45279;-80
2022/07/27 08:20:44;;;;;;;;;7.00;4.50;;;;;19.90;52.45;101670.31;5097048;27;45453;-80
2022/07/27 08:23:11;;;;;;;;;9.75;4.50;;;;;19.87;52.39;101662.56;5062960;27;45389;-80
2022/07/27 08:25:37;;;;;;;;;8.75;4.00;;;;;19.95;52.39;101656.88;5063649;28;45778;-80
2022/07/27 08:28:02;;;;;;;;;6.25;4.00;;;;;20.02;53.23;101667.94;5081949;27;45454;-80
2022/07/27 08:30:28;;;;;;;;;7.50;4.00;;;;;20.08;52.67;101663.19;5077720;27;45547;-80
2022/07/27 08:32:59;;;;;;;;;6.00;4.00;;;;;20.14;52.30;101671.72;5064244;28;45505;-80
2022/07/27 08:35:26;;;;;;;;;7.25;4.50;;;;;20.19;52.51;101673.19;5061027;28;45660;-79
2022/07/27 08:37:52;;;;;;;;;8.75;4.00;;;;;20.21;52.37;101676.59;5076399;28;45671;-80
2022/07/27 08:40:18;;;;;;;;;4.50;3.00;;;;;20.28;51.82;101670.03;5075289;28;45457;-80
2022/07/27 08:42:44;;;;;;;;;7.25;5.00;;;;;20.38;52.37;101661.59;5076021;27;46126;-80
2022/07/27 08:45:12;;;;;;;;;6.75;5.00;;;;;20.44;51.55;101666.53;5075849;27;60328;-79
2022/07/27 08:47:38;;;;;;;;;4.00;4.00;;;;;20.49;51.69;101657.41;5096782;27;45341;-80
2022/07/27 08:50:22;;;;;;;;;5.00;5.00;;;;;20.55;51.13;101660.66;5072160;27;45459;-80
2022/07/27 08:53:06;;;;;;;;;5.25;5.00;;;;;20.62;51.42;101656.75;5055526;28;45501;-80
2022/07/27 08:55:34;;;;;;;;;7.00;4.25;;;;;20.72;50.73;101665.84;5057988;28;45485;-80
2022/07/27 08:57:59;;;;;;;;;4.50;4.00;;;;;20.72;50.40;101659.72;5107409;27;45724;-80
2022/07/27 09:00:26;;;;;;;;;5.25;4.00;;;;;20.79;50.28;101659.28;5074210;28;45548;-82
2022/07/27 09:02:52;;;;;;;;;6.75;5.25;;;;;20.85;50.45;101655.41;5069951;28;45547;-81
2022/07/27 09:05:17;;;;;;;;;6.00;6.00;;;;;20.91;49.67;101660.34;5055404;28;45807;-80
2022/07/27 09:07:43;;;;;;;;;5.25;4.25;;;;;21.02;50.08;101657.97;5074153;28;45466;-81
2022/07/27 09:10:10;;;;;;;;;4.00;4.00;;;;;21.08;50.05;101664.69;5075607;27;45391;-81
2022/07/27 09:12:36;;;;;;;;;5.50;4.75;;;;;21.16;49.23;101667.72;5074007;27;45437;-82
2022/07/27 09:15:03;;;;;;;;;6.00;4.00;;;;;21.22;48.96;101671.81;5075389;28;45414;-81
2022/07/27 09:17:28;;;;;;;;;6.00;4.75;;;;;21.24;48.98;101661.97;5073012;27;45513;-81
2022/07/27 09:19:55;;;;;;;;;4.00;3.00;;;;;21.33;48.74;101663.22;5053463;28;68334;-81
2022/07/27 09:22:42;;;;;;;;;6.25;3.75;;;;;21.40;48.57;101662.75;5068228;27;45416;-81
2022/07/27 09:25:11;;;;;;;;;3.25;3.25;;;;;21.46;48.59;101650.97;5054997;28;45756;-81
2022/07/27 09:27:37;;;;;;;;;5.50;5.00;;;;;21.53;48.21;101659.44;5054184;28;45330;-82
2022/07/27 09:30:17;;;;;;;;;7.75;5.00;;;;;21.64;47.73;101656.97;5055440;28;45423;-82
2022/07/27 09:32:59;;;;;;;;;3.00;2.00;;;;;21.77;47.59;101662.38;5066649;28;46777;-81
2022/07/27 09:35:32;;;;;;;;;4.00;4.00;;;;;21.83;46.80;101664.63;5055442;28;45665;-81
2022/07/27 09:38:16;;;;;;;;;4.75;3.00;;;;;21.93;47.09;101660.44;5089519;27;45434;-81
2022/07/27 09:40:42;;;;;;;;;5.25;4.25;;;;;21.99;46.06;101657.44;5072076;28;45981;-81
2022/07/27 09:43:12;;;;;;;;;4.75;4.75;;;;;22.07;45.86;101659.59;5073853;28;45326;-81
2022/07/27 09:45:42;;;;;;;;;6.00;4.25;;;;;22.10;45.38;101655.91;5073538;28;45434;-81
2022/07/27 09:48:21;;;;;;;;;5.00;4.00;;;;;22.13;45.32;101651.25;5055494;28;45565;-79
2022/07/27 09:50:58;;;;;;;;;2.00;2.00;;;;;22.19;45.38;101656.19;5055159;28;45501;-80
2022/07/27 09:53:27;;;;;;;;;5.25;4.00;;;;;22.32;45.43;101652.78;5054661;28;46832;-79
2022/07/27 09:56:05;;;;;;;;;2.25;1.00;;;;;22.45;45.16;101655.47;5065690;28;45611;-80
2022/07/27 09:58:48;;;;;;;;;6.00;4.00;;;;;22.52;44.27;101640.88;5066804;27;45391;-80
2022/07/27 10:01:21;;;;;;;;;4.00;4.00;;;;;22.58;44.50;101644.00;5074203;28;45584;-81
2022/07/27 10:03:57;;;;;;;;;2.50;2.00;;;;;22.59;42.93;101637.72;5074069;27;45352;-80
2022/07/27 10:06:24;;;;;;;;;4.75;3.25;;;;;22.62;43.36;101647.25;5068099;28;45686;-80
2022/07/27 10:08:51;;;;;;;;;3.25;2.00;;;;;22.70;42.43;101646.78;5073573;28;45419;-80
2022/07/27 10:11:17;;;;;;;;;4.75;3.25;;;;;22.78;41.98;101653.28;5070019;28;45999;-79
2022/07/27 10:13:43;;;;;;;;;4.00;4.00;;;;;22.88;41.51;101642.03;5073247;27;45627;-78
2022/07/27 10:16:14;;;;;;;;;4.00;3.00;;;;;22.96;42.02;101653.88;5067220;28;72926;-79
2022/07/27 10:19:04;;;;;;;;;4.50;2.25;;;;;23.04;41.89;101641.91;5071229;27;45504;-81
2022/07/27 10:21:31;;;;;;;;;2.00;2.00;;;;;23.06;41.37;101635.53;5071410;28;45536;-81
2022/07/27 10:24:12;;;;;;;;;2.50;1.25;;;;;23.12;41.19;101629.84;5066569;28;46233;-81
2022/07/27 10:26:39;;;;;;;;;2.75;2.75;;;;;23.17;40.75;101630.34;5062048;28;45482;-80
2022/07/27 10:29:15;;;;;;;;;3.75;2.50;;;;;23.36;41.87;101640.59;5077080;28;45422;-80
2022/07/27 10:31:52;;;;;;;;;4.00;3.50;;;;;23.51;41.38;101635.13;5106229;27;45534;-82
2022/07/27 10:34:39;;;;;;;;;4.50;3.50;;;;;23.61;41.30;101625.59;5074153;27;45477;-81
2022/07/27 10:37:13;;;;;;;;;1.75;1.75;;;;;23.80;39.75;101635.78;5071993;27;45910;-82
2022/07/27 10:42:45;;;;;;;;;1.75;1.75;;;;;24.04;38.75;101627.03;5012598;28;45470;-84
2022/07/27 10:45:12;;;;;;;;;3.75;3.00;;;;;24.08;38.67;101629.34;5019148;28;46549;-82
2022/07/27 10:47:46;;;;;;;;;1.75;1.75;;;;;24.08;39.12;101626.69;5031683;28;45776;-84
2022/07/27 10:50:14;;;;;;;;;3.00;2.75;;;;;24.17;38.80;101633.16;5035321;28;45689;-82
2022/07/27 10:52:48;;;;;;;;;3.00;2.00;;;;;24.24;38.43;101618.47;5027856;28;45498;-82
2022/07/27 10:55:29;;;;;;;;;4.75;2.25;;;;;24.39;38.98;101618.31;5028640;28;46490;-82
2022/07/27 10:58:01;;;;;;;;;6.50;2.50;;;;;24.55;38.81;101616.22;5054565;28;45694;-81
2022/07/27 11:00:45;;;;;;;;;1.25;1.25;;;;;24.77;38.02;101612.81;5035365;28;45463;-82
2022/07/27 11:03:29;;;;;;;;;3.25;2.25;;;;;24.87;38.33;101605.84;5035368;28;45394;-84
2022/07/27 11:06:26;;;;;;;;;3.00;2.00;;;;;25.01;36.44;101610.09;5033631;28;47370;-80
2022/07/27 11:08:54;;;;;;;;;1.25;1.25;;;;;25.12;36.41;101609.28;5009738;28;45888;-81
2022/07/27 11:11:22;;;;;;;;;1.50;1.50;;;;;25.15;36.14;101594.84;5033498;28;45541;-83
2022/07/27 11:13:53;;;;;;;;;4.00;1.75;;;;;25.30;37.15;101612.38;5018060;28;45568;-84
2022/07/27 11:16:19;;;;;;;;;4.00;2.00;;;;;25.47;36.58;101613.72;5034975;28;45549;-87
2022/07/27 11:18:53;;;;;;;;;4.50;2.00;;;;;25.65;37.24;101590.09;5018734;28;45495;-84
2022/07/27 11:21:30;;;;;;;;;2.00;2.00;;;;;25.96;35.79;101593.84;5104012;27;45295;-84
2022/07/27 11:24:11;;;;;;;;;2.50;2.50;;;;;26.13;35.68;101589.78;5067900;27;45311;-84
2022/07/27 11:26:48;;;;;;;;;2.25;2.25;;;;;26.44;35.23;101590.78;5071731;28;45513;-83
2022/07/27 11:29:16;;;;;;;;;1.00;1.00;;;;;26.72;34.19;101591.19;5070603;27;45278;-86
2022/07/27 11:31:43;;;;;;;;;1.50;1.50;;;;;27.00;33.94;101595.03;5070552;28;45497;-85
2022/07/27 11:34:10;;;;;;;;;4.50;2.75;;;;;27.28;33.64;101583.84;5109505;27;45436;-87